sensor_id;sensor_type;location;lat;lon;timestamp;P1;durP1;ratioP1;P2;durP2;ratioP2
75537;SDS011;64121;48.666;8.114;2022-11-15T00:00:16;7.07;;;5.18;;
75537;SDS011;64121;48.666;8.114;2022-11-15T00:02:43;6.78;;;4.80;;
75537;SDS011;64121;48.666;8.114;2022-11-15T00:05:09;9.63;;;4.65;;
75537;SDS011;64121;48.666;8.114;2022-11-15T00:07:34;7.75;;;5.32;;
75537;SDS011;64121;48.666;8.114;2022-11-15T00:09:59;8.00;;;5.13;;
75537;SDS011;64121;48.666;8.114;2022-11-15T00:12:26;10.10;;;6.22;;
75537;SDS011;64121;48.666;8.114;2022-11-15T00:14:51;5.88;;;4.88;;
75537;SDS011;64121;48.666;8.114;2022-11-15T00:17:17;6.07;;;5.47;;
75537;SDS011;64121;48.666;8.114;2022-11-15T00:19:43;6.35;;;4.53;;
75537;SDS011;64121;48.666;8.114;2022-11-15T00:22:09;7.80;;;5.13;;
75537;SDS011;64121;48.666;8.114;2022-11-15T00:24:34;7.20;;;5.43;;
75537;SDS011;64121;48.666;8.114;2022-11-15T00:26:59;7.53;;;5.75;;
75537;SDS011;64121;48.666;8.114;2022-11-15T00:29:25;7.13;;;5.03;;
75537;SDS011;64121;48.666;8.114;2022-11-15T00:31:50;7.38;;;4.93;;
75537;SDS011;64121;48.666;8.114;2022-11-15T00:34:15;7.70;;;5.38;;
75537;SDS011;64121;48.666;8.114;2022-11-15T00:36:42;8.13;;;6.40;;
75537;SDS011;64121;48.666;8.114;2022-11-15T00:39:07;7.93;;;6.03;;
75537;SDS011;64121;48.666;8.114;2022-11-15T00:41:33;10.98;;;7.30;;
75537;SDS011;64121;48.666;8.114;2022-11-15T00:43:58;9.15;;;6.45;;
75537;SDS011;64121;48.666;8.114;2022-11-15T00:46:23;9.07;;;6.68;;
75537;SDS011;64121;48.666;8.114;2022-11-15T00:48:49;11.15;;;7.35;;
75537;SDS011;64121;48.666;8.114;2022-11-15T00:51:14;12.40;;;6.93;;
75537;SDS011;64121;48.666;8.114;2022-11-15T00:53:41;10.70;;;6.97;;
75537;SDS011;64121;48.666;8.114;2022-11-15T00:56:06;8.80;;;6.53;;
75537;SDS011;64121;48.666;8.114;2022-11-15T00:58:32;10.02;;;6.45;;
75537;SDS011;64121;48.666;8.114;2022-11-15T01:01:04;12.55;;;6.93;;
75537;SDS011;64121;48.666;8.114;2022-11-15T01:03:31;11.77;;;7.63;;
75537;SDS011;64121;48.666;8.114;2022-11-15T01:05:58;11.25;;;7.43;;
75537;SDS011;64121;48.666;8.114;2022-11-15T01:08:24;9.55;;;6.75;;
75537;SDS011;64121;48.666;8.114;2022-11-15T01:10:50;12.30;;;7.40;;
75537;SDS011;64121;48.666;8.114;2022-11-15T01:13:16;10.38;;;7.05;;
75537;SDS011;64121;48.666;8.114;2022-11-15T01:15:41;12.93;;;7.07;;
75537;SDS011;64121;48.666;8.114;2022-11-15T01:18:07;10.43;;;7.10;;
75537;SDS011;64121;48.666;8.114;2022-11-15T01:20:32;9.70;;;7.20;;
75537;SDS011;64121;48.666;8.114;2022-11-15T01:22:57;11.52;;;8.13;;
75537;SDS011;64121;48.666;8.114;2022-11-15T01:25:23;9.80;;;7.15;;
75537;SDS011;64121;48.666;8.114;2022-11-15T01:27:49;11.23;;;6.68;;
75537;SDS011;64121;48.666;8.114;2022-11-15T01:30:15;8.55;;;6.50;;
75537;SDS011;64121;48.666;8.114;2022-11-15T01:32:40;9.40;;;6.30;;
75537;SDS011;64121;48.666;8.114;2022-11-15T01:35:05;8.77;;;6.32;;
75537;SDS011;64121;48.666;8.114;2022-11-15T01:37:31;8.63;;;6.40;;
75537;SDS011;64121;48.666;8.114;2022-11-15T01:39:57;8.30;;;6.22;;
75537;SDS011;64121;48.666;8.114;2022-11-15T01:42:22;11.63;;;7.18;;
75537;SDS011;64121;48.666;8.114;2022-11-15T01:44:49;9.55;;;7.10;;
75537;SDS011;64121;48.666;8.114;2022-11-15T01:47:16;10.38;;;7.18;;
75537;SDS011;64121;48.666;8.114;2022-11-15T01:49:46;10.65;;;7.25;;
75537;SDS011;64121;48.666;8.114;2022-11-15T01:52:17;9.55;;;6.65;;
75537;SDS011;64121;48.666;8.114;2022-11-15T01:54:45;9.48;;;7.10;;
75537;SDS011;64121;48.666;8.114;2022-11-15T01:57:11;9.55;;;7.25;;
75537;SDS011;64121;48.666;8.114;2022-11-15T01:59:38;12.15;;;7.65;;
75537;SDS011;64121;48.666;8.114;2022-11-15T02:02:08;10.52;;;6.55;;
75537;SDS011;64121;48.666;8.114;2022-11-15T02:04:35;10.93;;;6.32;;
75537;SDS011;64121;48.666;8.114;2022-11-15T02:07:03;10.25;;;6.63;;
75537;SDS011;64121;48.666;8.114;2022-11-15T02:09:31;8.20;;;6.18;;
75537;SDS011;64121;48.666;8.114;2022-11-15T02:11:56;11.82;;;6.47;;
75537;SDS011;64121;48.666;8.114;2022-11-15T02:14:23;9.60;;;6.38;;
75537;SDS011;64121;48.666;8.114;2022-11-15T02:16:53;10.90;;;6.85;;
75537;SDS011;64121;48.666;8.114;2022-11-15T02:19:39;8.23;;;6.47;;
75537;SDS011;64121;48.666;8.114;2022-11-15T02:25:01;10.35;;;6.07;;
75537;SDS011;64121;48.666;8.114;2022-11-15T02:27:51;12.07;;;7.15;;
75537;SDS011;64121;48.666;8.114;2022-11-15T02:30:28;7.13;;;6.05;;
75537;SDS011;64121;48.666;8.114;2022-11-15T02:33:07;8.88;;;6.10;;
75537;SDS011;64121;48.666;8.114;2022-11-15T02:35:41;10.27;;;6.03;;
75537;SDS011;64121;48.666;8.114;2022-11-15T02:38:15;10.55;;;7.22;;
75537;SDS011;64121;48.666;8.114;2022-11-15T02:40:49;9.77;;;6.50;;
75537;SDS011;64121;48.666;8.114;2022-11-15T02:43:21;9.30;;;5.88;;
75537;SDS011;64121;48.666;8.114;2022-11-15T02:45:56;7.10;;;5.53;;
75537;SDS011;64121;48.666;8.114;2022-11-15T02:48:27;7.57;;;5.88;;
75537;SDS011;64121;48.666;8.114;2022-11-15T02:50:54;8.27;;;6.32;;
75537;SDS011;64121;48.666;8.114;2022-11-15T02:53:23;10.00;;;6.22;;
75537;SDS011;64121;48.666;8.114;2022-11-15T02:55:49;9.77;;;6.15;;
75537;SDS011;64121;48.666;8.114;2022-11-15T02:58:21;7.13;;;5.97;;
75537;SDS011;64121;48.666;8.114;2022-11-15T03:01:06;7.55;;;6.07;;
75537;SDS011;64121;48.666;8.114;2022-11-15T03:03:42;8.90;;;6.35;;
75537;SDS011;64121;48.666;8.114;2022-11-15T03:06:20;8.23;;;5.93;;
75537;SDS011;64121;48.666;8.114;2022-11-15T03:08:54;10.38;;;5.97;;
75537;SDS011;64121;48.666;8.114;2022-11-15T03:11:27;7.45;;;5.78;;
75537;SDS011;64121;48.666;8.114;2022-11-15T03:13:56;9.55;;;5.47;;
75537;SDS011;64121;48.666;8.114;2022-11-15T03:16:26;6.80;;;4.97;;
75537;SDS011;64121;48.666;8.114;2022-11-15T03:18:55;7.18;;;5.55;;
75537;SDS011;64121;48.666;8.114;2022-11-15T03:21:24;9.85;;;6.20;;
75537;SDS011;64121;48.666;8.114;2022-11-15T03:23:53;6.60;;;5.57;;
75537;SDS011;64121;48.666;8.114;2022-11-15T03:26:21;7.50;;;5.25;;
75537;SDS011;64121;48.666;8.114;2022-11-15T03:28:49;7.38;;;4.72;;
75537;SDS011;64121;48.666;8.114;2022-11-15T03:31:17;7.40;;;5.45;;
75537;SDS011;64121;48.666;8.114;2022-11-15T03:33:47;8.23;;;5.68;;
75537;SDS011;64121;48.666;8.114;2022-11-15T03:36:13;6.72;;;5.00;;
75537;SDS011;64121;48.666;8.114;2022-11-15T03:38:40;8.13;;;5.50;;
75537;SDS011;64121;48.666;8.114;2022-11-15T03:41:07;7.35;;;5.10;;
75537;SDS011;64121;48.666;8.114;2022-11-15T03:43:41;7.97;;;5.38;;
75537;SDS011;64121;48.666;8.114;2022-11-15T03:46:12;8.35;;;5.85;;
75537;SDS011;64121;48.666;8.114;2022-11-15T03:48:40;6.72;;;4.88;;
75537;SDS011;64121;48.666;8.114;2022-11-15T03:51:12;7.90;;;5.47;;
75537;SDS011;64121;48.666;8.114;2022-11-15T03:53:38;7.35;;;5.07;;
75537;SDS011;64121;48.666;8.114;2022-11-15T03:56:05;8.68;;;5.82;;
75537;SDS011;64121;48.666;8.114;2022-11-15T03:58:31;7.75;;;5.63;;
75537;SDS011;64121;48.666;8.114;2022-11-15T04:00:56;7.47;;;5.10;;
75537;SDS011;64121;48.666;8.114;2022-11-15T04:03:22;7.95;;;5.30;;
75537;SDS011;64121;48.666;8.114;2022-11-15T04:05:47;8.20;;;6.00;;
75537;SDS011;64121;48.666;8.114;2022-11-15T04:08:14;6.13;;;4.80;;
75537;SDS011;64121;48.666;8.114;2022-11-15T04:10:39;6.90;;;4.80;;
75537;SDS011;64121;48.666;8.114;2022-11-15T04:13:04;6.15;;;4.68;;
75537;SDS011;64121;48.666;8.114;2022-11-15T04:15:30;8.63;;;4.97;;
75537;SDS011;64121;48.666;8.114;2022-11-15T04:17:55;7.13;;;5.53;;
75537;SDS011;64121;48.666;8.114;2022-11-15T04:20:22;8.00;;;5.07;;
75537;SDS011;64121;48.666;8.114;2022-11-15T04:22:51;8.15;;;4.85;;
75537;SDS011;64121;48.666;8.114;2022-11-15T04:25:19;6.97;;;4.88;;
75537;SDS011;64121;48.666;8.114;2022-11-15T04:27:44;7.07;;;4.45;;
75537;SDS011;64121;48.666;8.114;2022-11-15T04:30:10;6.88;;;4.50;;
75537;SDS011;64121;48.666;8.114;2022-11-15T04:32:35;5.57;;;3.92;;
75537;SDS011;64121;48.666;8.114;2022-11-15T04:35:00;6.50;;;4.07;;
75537;SDS011;64121;48.666;8.114;2022-11-15T04:37:26;5.88;;;4.00;;
75537;SDS011;64121;48.666;8.114;2022-11-15T04:39:51;5.43;;;4.43;;
75537;SDS011;64121;48.666;8.114;2022-11-15T04:42:18;6.05;;;3.78;;
75537;SDS011;64121;48.666;8.114;2022-11-15T04:44:43;4.97;;;3.63;;
75537;SDS011;64121;48.666;8.114;2022-11-15T04:47:08;4.97;;;3.67;;
75537;SDS011;64121;48.666;8.114;2022-11-15T04:49:33;3.95;;;3.30;;
75537;SDS011;64121;48.666;8.114;2022-11-15T04:51:59;4.85;;;3.80;;
75537;SDS011;64121;48.666;8.114;2022-11-15T04:54:24;6.05;;;3.60;;
75537;SDS011;64121;48.666;8.114;2022-11-15T04:56:49;4.97;;;3.42;;
75537;SDS011;64121;48.666;8.114;2022-11-15T04:59:16;6.18;;;4.10;;
75537;SDS011;64121;48.666;8.114;2022-11-15T05:01:41;5.78;;;3.90;;
75537;SDS011;64121;48.666;8.114;2022-11-15T05:04:07;5.68;;;3.63;;
75537;SDS011;64121;48.666;8.114;2022-11-15T05:06:32;5.28;;;3.47;;
75537;SDS011;64121;48.666;8.114;2022-11-15T05:08:57;5.63;;;3.70;;
75537;SDS011;64121;48.666;8.114;2022-11-15T05:11:23;4.97;;;4.18;;
75537;SDS011;64121;48.666;8.114;2022-11-15T05:13:48;5.45;;;4.28;;
75537;SDS011;64121;48.666;8.114;2022-11-15T05:16:15;5.13;;;4.55;;
75537;SDS011;64121;48.666;8.114;2022-11-15T05:18:41;6.95;;;4.55;;
75537;SDS011;64121;48.666;8.114;2022-11-15T05:21:07;5.95;;;3.40;;
75537;SDS011;64121;48.666;8.114;2022-11-15T05:23:33;5.50;;;3.90;;
75537;SDS011;64121;48.666;8.114;2022-11-15T05:25:59;5.13;;;3.47;;
75537;SDS011;64121;48.666;8.114;2022-11-15T05:28:24;6.25;;;3.78;;
75537;SDS011;64121;48.666;8.114;2022-11-15T05:30:50;5.40;;;3.38;;
75537;SDS011;64121;48.666;8.114;2022-11-15T05:33:16;7.10;;;4.50;;
75537;SDS011;64121;48.666;8.114;2022-11-15T05:35:44;4.95;;;3.90;;
75537;SDS011;64121;48.666;8.114;2022-11-15T05:38:13;5.40;;;4.03;;
75537;SDS011;64121;48.666;8.114;2022-11-15T05:40:39;6.60;;;4.10;;
75537;SDS011;64121;48.666;8.114;2022-11-15T05:43:04;5.03;;;4.07;;
75537;SDS011;64121;48.666;8.114;2022-11-15T05:45:31;6.03;;;4.38;;
75537;SDS011;64121;48.666;8.114;2022-11-15T05:47:58;5.75;;;4.45;;
75537;SDS011;64121;48.666;8.114;2022-11-15T05:50:26;6.47;;;4.20;;
75537;SDS011;64121;48.666;8.114;2022-11-15T05:52:52;6.78;;;5.32;;
75537;SDS011;64121;48.666;8.114;2022-11-15T05:55:19;7.10;;;4.45;;
75537;SDS011;64121;48.666;8.114;2022-11-15T05:57:45;6.63;;;4.60;;
75537;SDS011;64121;48.666;8.114;2022-11-15T06:00:10;6.95;;;4.88;;
75537;SDS011;64121;48.666;8.114;2022-11-15T06:02:37;5.43;;;3.97;;
75537;SDS011;64121;48.666;8.114;2022-11-15T06:05:02;7.82;;;4.75;;
75537;SDS011;64121;48.666;8.114;2022-11-15T06:07:29;5.68;;;4.32;;
75537;SDS011;64121;48.666;8.114;2022-11-15T06:09:55;4.55;;;3.88;;
75537;SDS011;64121;48.666;8.114;2022-11-15T06:12:20;7.25;;;4.38;;
75537;SDS011;64121;48.666;8.114;2022-11-15T06:14:45;5.70;;;4.10;;
75537;SDS011;64121;48.666;8.114;2022-11-15T06:17:11;5.90;;;3.97;;
75537;SDS011;64121;48.666;8.114;2022-11-15T06:19:36;4.82;;;3.47;;
75537;SDS011;64121;48.666;8.114;2022-11-15T06:22:01;5.30;;;4.03;;
75537;SDS011;64121;48.666;8.114;2022-11-15T06:24:28;5.85;;;3.88;;
75537;SDS011;64121;48.666;8.114;2022-11-15T06:26:53;5.38;;;4.10;;
75537;SDS011;64121;48.666;8.114;2022-11-15T06:29:19;7.13;;;4.10;;
75537;SDS011;64121;48.666;8.114;2022-11-15T06:31:44;6.53;;;4.28;;
75537;SDS011;64121;48.666;8.114;2022-11-15T06:34:09;7.03;;;4.30;;
75537;SDS011;64121;48.666;8.114;2022-11-15T06:36:35;5.82;;;4.50;;
75537;SDS011;64121;48.666;8.114;2022-11-15T06:39:00;5.30;;;4.30;;
75537;SDS011;64121;48.666;8.114;2022-11-15T06:41:27;7.93;;;4.70;;
75537;SDS011;64121;48.666;8.114;2022-11-15T06:43:52;8.40;;;4.50;;
75537;SDS011;64121;48.666;8.114;2022-11-15T06:46:18;7.85;;;4.40;;
75537;SDS011;64121;48.666;8.114;2022-11-15T06:48:43;6.68;;;4.50;;
75537;SDS011;64121;48.666;8.114;2022-11-15T06:51:08;6.97;;;4.57;;
75537;SDS011;64121;48.666;8.114;2022-11-15T06:53:34;6.07;;;4.47;;
75537;SDS011;64121;48.666;8.114;2022-11-15T06:56:00;7.88;;;4.70;;
75537;SDS011;64121;48.666;8.114;2022-11-15T06:58:27;6.03;;;4.63;;
75537;SDS011;64121;48.666;8.114;2022-11-15T07:00:53;5.90;;;4.97;;
75537;SDS011;64121;48.666;8.114;2022-11-15T07:03:18;7.15;;;5.15;;
75537;SDS011;64121;48.666;8.114;2022-11-15T07:05:50;6.22;;;5.32;;
75537;SDS011;64121;48.666;8.114;2022-11-15T07:08:16;6.43;;;4.95;;
75537;SDS011;64121;48.666;8.114;2022-11-15T07:10:41;9.02;;;4.90;;
75537;SDS011;64121;48.666;8.114;2022-11-15T07:13:07;7.25;;;5.22;;
75537;SDS011;64121;48.666;8.114;2022-11-15T07:15:33;7.43;;;4.80;;
75537;SDS011;64121;48.666;8.114;2022-11-15T07:18:00;7.10;;;4.53;;
75537;SDS011;64121;48.666;8.114;2022-11-15T07:20:25;7.30;;;4.75;;
75537;SDS011;64121;48.666;8.114;2022-11-15T07:22:50;5.30;;;3.55;;
75537;SDS011;64121;48.666;8.114;2022-11-15T07:25:16;5.35;;;3.95;;
75537;SDS011;64121;48.666;8.114;2022-11-15T07:27:41;4.93;;;3.72;;
75537;SDS011;64121;48.666;8.114;2022-11-15T07:30:07;5.30;;;3.30;;
75537;SDS011;64121;48.666;8.114;2022-11-15T07:32:35;5.07;;;3.50;;
75537;SDS011;64121;48.666;8.114;2022-11-15T07:35:00;6.72;;;4.90;;
75537;SDS011;64121;48.666;8.114;2022-11-15T07:37:25;10.38;;;6.72;;
75537;SDS011;64121;48.666;8.114;2022-11-15T07:39:51;11.23;;;9.13;;
75537;SDS011;64121;48.666;8.114;2022-11-15T07:42:16;11.52;;;8.35;;
75537;SDS011;64121;48.666;8.114;2022-11-15T07:44:41;12.05;;;7.40;;
75537;SDS011;64121;48.666;8.114;2022-11-15T07:47:07;11.93;;;8.10;;
75537;SDS011;64121;48.666;8.114;2022-11-15T07:49:33;10.27;;;6.97;;
75537;SDS011;64121;48.666;8.114;2022-11-15T07:51:59;7.82;;;6.55;;
75537;SDS011;64121;48.666;8.114;2022-11-15T07:54:24;8.45;;;5.57;;
75537;SDS011;64121;48.666;8.114;2022-11-15T07:56:49;7.90;;;5.18;;
75537;SDS011;64121;48.666;8.114;2022-11-15T07:59:15;6.70;;;4.80;;
75537;SDS011;64121;48.666;8.114;2022-11-15T08:01:40;6.70;;;4.60;;
75537;SDS011;64121;48.666;8.114;2022-11-15T08:04:05;7.53;;;5.15;;
75537;SDS011;64121;48.666;8.114;2022-11-15T08:06:32;4.47;;;3.45;;
75537;SDS011;64121;48.666;8.114;2022-11-15T08:08:57;5.97;;;3.88;;
75537;SDS011;64121;48.666;8.114;2022-11-15T08:11:23;5.70;;;4.10;;
75537;SDS011;64121;48.666;8.114;2022-11-15T08:13:48;4.65;;;4.03;;
75537;SDS011;64121;48.666;8.114;2022-11-15T08:16:13;6.25;;;4.50;;
75537;SDS011;64121;48.666;8.114;2022-11-15T08:18:39;5.20;;;4.22;;
75537;SDS011;64121;48.666;8.114;2022-11-15T08:21:04;6.55;;;4.47;;
75537;SDS011;64121;48.666;8.114;2022-11-15T08:23:31;6.63;;;4.57;;
75537;SDS011;64121;48.666;8.114;2022-11-15T08:26:00;6.18;;;4.10;;
75537;SDS011;64121;48.666;8.114;2022-11-15T08:28:26;7.07;;;4.50;;
75537;SDS011;64121;48.666;8.114;2022-11-15T08:30:51;7.13;;;5.15;;
75537;SDS011;64121;48.666;8.114;2022-11-15T08:33:16;5.80;;;4.55;;
75537;SDS011;64121;48.666;8.114;2022-11-15T08:35:42;6.35;;;4.65;;
75537;SDS011;64121;48.666;8.114;2022-11-15T08:38:08;7.38;;;4.63;;
75537;SDS011;64121;48.666;8.114;2022-11-15T08:40:35;5.47;;;4.80;;
75537;SDS011;64121;48.666;8.114;2022-11-15T08:43:01;6.65;;;4.97;;
75537;SDS011;64121;48.666;8.114;2022-11-15T08:45:27;9.10;;;5.35;;
75537;SDS011;64121;48.666;8.114;2022-11-15T08:47:53;6.38;;;5.53;;
75537;SDS011;64121;48.666;8.114;2022-11-15T08:50:18;6.15;;;4.82;;
75537;SDS011;64121;48.666;8.114;2022-11-15T08:52:43;5.97;;;4.82;;
75537;SDS011;64121;48.666;8.114;2022-11-15T08:55:09;6.15;;;4.97;;
75537;SDS011;64121;48.666;8.114;2022-11-15T08:57:35;9.45;;;8.55;;
75537;SDS011;64121;48.666;8.114;2022-11-15T09:00:01;10.98;;;9.02;;
75537;SDS011;64121;48.666;8.114;2022-11-15T09:02:26;8.35;;;6.53;;
75537;SDS011;64121;48.666;8.114;2022-11-15T09:04:51;8.82;;;7.93;;
75537;SDS011;64121;48.666;8.114;2022-11-15T09:07:17;9.65;;;7.18;;
75537;SDS011;64121;48.666;8.114;2022-11-15T09:09:42;16.15;;;11.00;;
75537;SDS011;64121;48.666;8.114;2022-11-15T09:12:08;13.80;;;9.80;;
75537;SDS011;64121;48.666;8.114;2022-11-15T09:14:35;11.75;;;9.30;;
75537;SDS011;64121;48.666;8.114;2022-11-15T09:17:00;11.02;;;9.68;;
75537;SDS011;64121;48.666;8.114;2022-11-15T09:19:26;10.18;;;9.13;;
75537;SDS011;64121;48.666;8.114;2022-11-15T09:21:52;11.48;;;9.73;;
75537;SDS011;64121;48.666;8.114;2022-11-15T09:24:17;11.88;;;9.60;;
75537;SDS011;64121;48.666;8.114;2022-11-15T09:26:43;13.73;;;10.65;;
75537;SDS011;64121;48.666;8.114;2022-11-15T09:29:08;12.20;;;9.75;;
75537;SDS011;64121;48.666;8.114;2022-11-15T09:31:35;11.07;;;9.88;;
75537;SDS011;64121;48.666;8.114;2022-11-15T09:34:01;12.27;;;9.50;;
75537;SDS011;64121;48.666;8.114;2022-11-15T09:36:26;10.85;;;9.25;;
75537;SDS011;64121;48.666;8.114;2022-11-15T09:38:52;10.10;;;8.90;;
75537;SDS011;64121;48.666;8.114;2022-11-15T09:44:35;9.38;;;7.53;;
75537;SDS011;64121;48.666;8.114;2022-11-15T09:47:10;8.65;;;7.30;;
75537;SDS011;64121;48.666;8.114;2022-11-15T09:49:56;9.23;;;6.80;;
75537;SDS011;64121;48.666;8.114;2022-11-15T09:52:24;9.88;;;7.00;;
75537;SDS011;64121;48.666;8.114;2022-11-15T09:54:50;8.65;;;6.82;;
75537;SDS011;64121;48.666;8.114;2022-11-15T09:57:26;8.90;;;6.75;;
75537;SDS011;64121;48.666;8.114;2022-11-15T10:02:46;8.98;;;6.82;;
75537;SDS011;64121;48.666;8.114;2022-11-15T10:05:23;8.75;;;7.07;;
75537;SDS011;64121;48.666;8.114;2022-11-15T10:07:53;10.20;;;7.10;;
75537;SDS011;64121;48.666;8.114;2022-11-15T10:10:25;12.15;;;8.00;;
75537;SDS011;64121;48.666;8.114;2022-11-15T10:12:55;8.95;;;6.57;;
75537;SDS011;64121;48.666;8.114;2022-11-15T10:15:21;8.30;;;6.60;;
75537;SDS011;64121;48.666;8.114;2022-11-15T10:17:54;9.52;;;6.80;;
75537;SDS011;64121;48.666;8.114;2022-11-15T10:20:29;9.52;;;7.20;;
75537;SDS011;64121;48.666;8.114;2022-11-15T10:22:58;9.25;;;7.07;;
75537;SDS011;64121;48.666;8.114;2022-11-15T10:25:26;8.55;;;7.07;;
75537;SDS011;64121;48.666;8.114;2022-11-15T10:27:54;9.90;;;6.50;;
75537;SDS011;64121;48.666;8.114;2022-11-15T10:30:22;10.27;;;7.07;;
75537;SDS011;64121;48.666;8.114;2022-11-15T10:32:48;8.57;;;6.80;;
75537;SDS011;64121;48.666;8.114;2022-11-15T10:35:24;10.57;;;7.95;;
75537;SDS011;64121;48.666;8.114;2022-11-15T10:37:52;9.13;;;7.30;;
75537;SDS011;64121;48.666;8.114;2022-11-15T10:40:29;9.27;;;7.13;;
75537;SDS011;64121;48.666;8.114;2022-11-15T10:43:04;10.82;;;7.60;;
75537;SDS011;64121;48.666;8.114;2022-11-15T10:45:31;8.80;;;7.50;;
75537;SDS011;64121;48.666;8.114;2022-11-15T10:48:18;9.73;;;7.55;;
75537;SDS011;64121;48.666;8.114;2022-11-15T10:50:47;7.03;;;5.95;;
75537;SDS011;64121;48.666;8.114;2022-11-15T10:53:17;6.57;;;4.97;;
75537;SDS011;64121;48.666;8.114;2022-11-15T10:55:47;9.23;;;6.10;;
75537;SDS011;64121;48.666;8.114;2022-11-15T10:58:20;9.27;;;6.18;;
75537;SDS011;64121;48.666;8.114;2022-11-15T11:00:53;6.63;;;5.95;;
75537;SDS011;64121;48.666;8.114;2022-11-15T11:03:27;8.95;;;6.05;;
75537;SDS011;64121;48.666;8.114;2022-11-15T11:06:04;7.38;;;6.60;;
75537;SDS011;64121;48.666;8.114;2022-11-15T11:08:32;7.70;;;6.90;;
75537;SDS011;64121;48.666;8.114;2022-11-15T11:10:58;7.32;;;6.32;;
75537;SDS011;64121;48.666;8.114;2022-11-15T11:13:25;7.13;;;6.43;;
75537;SDS011;64121;48.666;8.114;2022-11-15T11:15:52;7.57;;;6.32;;
75537;SDS011;64121;48.666;8.114;2022-11-15T11:18:23;8.80;;;6.78;;
75537;SDS011;64121;48.666;8.114;2022-11-15T11:20:54;7.63;;;6.50;;
75537;SDS011;64121;48.666;8.114;2022-11-15T11:23:34;10.35;;;8.68;;
75537;SDS011;64121;48.666;8.114;2022-11-15T11:26:12;16.80;;;15.10;;
75537;SDS011;64121;48.666;8.114;2022-11-15T11:28:49;17.02;;;15.23;;
75537;SDS011;64121;48.666;8.114;2022-11-15T11:31:24;11.65;;;9.80;;
75537;SDS011;64121;48.666;8.114;2022-11-15T11:34:01;9.35;;;8.38;;
75537;SDS011;64121;48.666;8.114;2022-11-15T11:36:39;8.60;;;7.18;;
75537;SDS011;64121;48.666;8.114;2022-11-15T11:39:20;9.63;;;7.07;;
75537;SDS011;64121;48.666;8.114;2022-11-15T11:41:55;7.72;;;6.57;;
75537;SDS011;64121;48.666;8.114;2022-11-15T11:44:29;7.63;;;6.78;;
75537;SDS011;64121;48.666;8.114;2022-11-15T11:46:59;10.68;;;8.63;;
75537;SDS011;64121;48.666;8.114;2022-11-15T11:49:28;9.75;;;8.18;;
75537;SDS011;64121;48.666;8.114;2022-11-15T11:52:00;10.68;;;9.45;;
75537;SDS011;64121;48.666;8.114;2022-11-15T11:54:34;10.45;;;8.43;;
75537;SDS011;64121;48.666;8.114;2022-11-15T11:57:05;9.07;;;8.18;;
75537;SDS011;64121;48.666;8.114;2022-11-15T12:02:10;10.25;;;8.35;;
75537;SDS011;64121;48.666;8.114;2022-11-15T12:04:40;10.02;;;8.45;;
75537;SDS011;64121;48.666;8.114;2022-11-15T12:07:08;10.50;;;8.43;;
75537;SDS011;64121;48.666;8.114;2022-11-15T12:09:43;9.37;;;7.87;;
75537;SDS011;64121;48.666;8.114;2022-11-15T12:12:13;9.57;;;7.70;;
75537;SDS011;64121;48.666;8.114;2022-11-15T12:14:45;8.63;;;7.55;;
75537;SDS011;64121;48.666;8.114;2022-11-15T12:17:13;9.75;;;7.03;;
75537;SDS011;64121;48.666;8.114;2022-11-15T12:19:41;8.82;;;6.32;;
75537;SDS011;64121;48.666;8.114;2022-11-15T12:22:09;7.43;;;6.47;;
75537;SDS011;64121;48.666;8.114;2022-11-15T12:24:39;7.03;;;6.32;;
75537;SDS011;64121;48.666;8.114;2022-11-15T12:27:12;8.48;;;6.60;;
75537;SDS011;64121;48.666;8.114;2022-11-15T12:29:43;14.23;;;9.60;;
75537;SDS011;64121;48.666;8.114;2022-11-15T12:32:16;20.50;;;10.48;;
75537;SDS011;64121;48.666;8.114;2022-11-15T12:34:49;13.18;;;8.75;;
75537;SDS011;64121;48.666;8.114;2022-11-15T12:40:17;22.38;;;8.10;;
75537;SDS011;64121;48.666;8.114;2022-11-15T12:42:58;8.27;;;7.13;;
75537;SDS011;64121;48.666;8.114;2022-11-15T12:45:29;11.07;;;7.37;;
75537;SDS011;64121;48.666;8.114;2022-11-15T12:48:21;8.85;;;6.78;;
75537;SDS011;64121;48.666;8.114;2022-11-15T12:51:06;12.35;;;6.75;;
75537;SDS011;64121;48.666;8.114;2022-11-15T12:53:32;8.77;;;6.57;;
75537;SDS011;64121;48.666;8.114;2022-11-15T12:56:09;8.65;;;6.68;;
75537;SDS011;64121;48.666;8.114;2022-11-15T12:58:47;8.25;;;7.10;;
75537;SDS011;64121;48.666;8.114;2022-11-15T13:04:24;12.18;;;5.97;;
75537;SDS011;64121;48.666;8.114;2022-11-15T13:06:52;8.90;;;6.32;;
75537;SDS011;64121;48.666;8.114;2022-11-15T13:18:25;9.30;;;6.13;;
75537;SDS011;64121;48.666;8.114;2022-11-15T13:20:53;8.30;;;6.75;;
75537;SDS011;64121;48.666;8.114;2022-11-15T13:23:19;7.28;;;6.28;;
75537;SDS011;64121;48.666;8.114;2022-11-15T13:25:53;9.98;;;6.70;;
75537;SDS011;64121;48.666;8.114;2022-11-15T13:28:32;7.60;;;6.80;;
75537;SDS011;64121;48.666;8.114;2022-11-15T13:31:01;10.57;;;7.13;;
75537;SDS011;64121;48.666;8.114;2022-11-15T13:33:38;8.98;;;6.85;;
75537;SDS011;64121;48.666;8.114;2022-11-15T13:36:05;10.60;;;8.70;;
75537;SDS011;64121;48.666;8.114;2022-11-15T13:38:34;12.25;;;8.82;;
75537;SDS011;64121;48.666;8.114;2022-11-15T13:41:10;11.57;;;7.90;;
75537;SDS011;64121;48.666;8.114;2022-11-15T13:43:41;11.02;;;8.00;;
75537;SDS011;64121;48.666;8.114;2022-11-15T13:46:11;11.65;;;8.77;;
75537;SDS011;64121;48.666;8.114;2022-11-15T13:48:38;11.60;;;9.50;;
75537;SDS011;64121;48.666;8.114;2022-11-15T13:51:04;11.10;;;7.95;;
75537;SDS011;64121;48.666;8.114;2022-11-15T13:53:33;12.35;;;8.65;;
75537;SDS011;64121;48.666;8.114;2022-11-15T13:56:02;10.27;;;7.93;;
75537;SDS011;64121;48.666;8.114;2022-11-15T13:58:27;11.45;;;8.73;;
75537;SDS011;64121;48.666;8.114;2022-11-15T14:00:58;10.52;;;8.35;;
75537;SDS011;64121;48.666;8.114;2022-11-15T14:03:27;11.68;;;8.32;;
75537;SDS011;64121;48.666;8.114;2022-11-15T14:06:08;10.88;;;8.32;;
75537;SDS011;64121;48.666;8.114;2022-11-15T14:08:35;7.88;;;7.05;;
75537;SDS011;64121;48.666;8.114;2022-11-15T14:11:09;9.30;;;7.50;;
75537;SDS011;64121;48.666;8.114;2022-11-15T14:13:39;11.02;;;7.50;;
75537;SDS011;64121;48.666;8.114;2022-11-15T14:16:14;9.73;;;8.18;;
75537;SDS011;64121;48.666;8.114;2022-11-15T14:18:44;10.38;;;7.40;;
75537;SDS011;64121;48.666;8.114;2022-11-15T14:21:11;12.20;;;9.23;;
75537;SDS011;64121;48.666;8.114;2022-11-15T14:23:36;12.00;;;9.52;;
75537;SDS011;64121;48.666;8.114;2022-11-15T14:26:02;11.13;;;9.55;;
75537;SDS011;64121;48.666;8.114;2022-11-15T14:28:29;13.10;;;9.18;;
75537;SDS011;64121;48.666;8.114;2022-11-15T14:30:56;10.07;;;8.35;;
75537;SDS011;64121;48.666;8.114;2022-11-15T14:33:24;11.15;;;7.82;;
75537;SDS011;64121;48.666;8.114;2022-11-15T14:35:53;12.68;;;8.82;;
75537;SDS011;64121;48.666;8.114;2022-11-15T14:38:19;11.55;;;9.32;;
75537;SDS011;64121;48.666;8.114;2022-11-15T14:40:44;10.93;;;8.80;;
75537;SDS011;64121;48.666;8.114;2022-11-15T14:43:10;10.40;;;7.75;;
75537;SDS011;64121;48.666;8.114;2022-11-15T14:45:36;12.55;;;8.95;;
75537;SDS011;64121;48.666;8.114;2022-11-15T14:48:02;11.25;;;8.18;;
75537;SDS011;64121;48.666;8.114;2022-11-15T14:50:28;12.80;;;9.32;;
75537;SDS011;64121;48.666;8.114;2022-11-15T14:52:55;14.38;;;11.38;;
75537;SDS011;64121;48.666;8.114;2022-11-15T14:55:21;13.55;;;9.38;;
75537;SDS011;64121;48.666;8.114;2022-11-15T14:57:49;13.00;;;9.05;;
75537;SDS011;64121;48.666;8.114;2022-11-15T15:00:15;11.95;;;9.18;;
75537;SDS011;64121;48.666;8.114;2022-11-15T15:02:41;16.58;;;8.57;;
75537;SDS011;64121;48.666;8.114;2022-11-15T15:05:13;11.70;;;9.40;;
75537;SDS011;64121;48.666;8.114;2022-11-15T15:07:39;14.68;;;10.85;;
75537;SDS011;64121;48.666;8.114;2022-11-15T15:10:06;14.35;;;10.40;;
75537;SDS011;64121;48.666;8.114;2022-11-15T15:12:32;17.33;;;14.40;;
75537;SDS011;64121;48.666;8.114;2022-11-15T15:14:58;13.88;;;10.65;;